Time;durP1;ratioP1;P1;durP2;ratioP2;P2;SDS_P1;SDS_P2;PMS_P1;PMS_P2;Temp;Humidity;BMP_temperature;BMP_pressure;BME280_temperature;BME280_humidity;BME280_pressure;Samples;Min_cycle;Max_cycle;Signal;HPM_P1;HPM_P2
2024/03/06 00:02:16;;;;;;;46.80;44.30;;;;;;;6.60;100.00;101023.63;5027293;28;20853;-72
2024/03/06 00:04:43;;;;;;;50.22;47.33;;;;;;;6.54;100.00;101019.03;5027039;28;20045;-72
2024/03/06 00:07:16;;;;;;;49.50;46.80;;;;;;;6.60;100.00;101021.81;5027527;28;20865;-72
2024/03/06 00:09:44;;;;;;;48.10;45.60;;;;;;;6.48;100.00;101030.28;5027723;28;20424;-72
2024/03/06 00:12:11;;;;;;;51.65;48.85;;;;;;;6.52;100.00;101023.66;5025877;28;20486;-72
2024/03/06 00:14:38;;;;;;;42.60;40.35;;;;;;;6.59;100.00;101037.78;5030718;28;20049;-72
2024/03/06 00:17:06;;;;;;;41.42;39.22;;;;;;;6.51;100.00;101030.75;5027601;28;20479;-72
2024/03/06 00:19:33;;;;;;;49.22;46.63;;;;;;;6.52;100.00;101034.22;5027095;28;20669;-72
2024/03/06 00:22:01;;;;;;;53.50;50.80;;;;;;;6.42;100.00;101034.41;5027274;28;20171;-72
2024/03/06 00:24:28;;;;;;;48.92;46.45;;;;;;;6.40;100.00;101036.41;5026119;28;20049;-72
2024/03/06 00:26:54;;;;;;;45.08;42.67;;;;;;;6.48;100.00;101039.00;5024555;28;20054;-72
2024/03/06 00:29:21;;;;;;;44.17;41.75;;;;;;;6.39;100.00;101035.59;5015022;28;20549;-72
2024/03/06 00:31:47;;;;;;;49.13;46.60;;;;;;;6.50;100.00;101033.56;5027291;28;20053;-72
2024/03/06 00:34:16;;;;;;;44.97;42.28;;;;;;;6.54;100.00;101040.16;5019206;28;20128;-72
2024/03/06 00:36:43;;;;;;;48.33;45.67;;;;;;;6.57;100.00;101040.63;5025848;28;20049;-72
2024/03/06 00:39:10;;;;;;;45.70;43.15;;;;;;;6.52;100.00;101047.41;5025090;28;20057;-72
2024/03/06 00:41:37;;;;;;;41.85;39.42;;;;;;;6.43;100.00;101039.50;5026867;28;20398;-72
2024/03/06 00:44:05;;;;;;;44.17;41.88;;;;;;;6.27;100.00;101042.22;5027828;28;20049;-72
2024/03/06 00:46:32;;;;;;;48.60;46.20;;;;;;;6.28;100.00;101043.03;5020867;28;20466;-70
2024/03/06 00:48:59;;;;;;;46.30;43.90;;;;;;;6.25;100.00;101038.91;5022192;28;20052;-71
2024/03/06 00:51:27;;;;;;;42.15;39.70;;;;;;;6.34;100.00;101050.28;5024814;28;20064;-71
2024/03/06 00:53:54;;;;;;;40.63;38.33;;;;;;;6.14;100.00;101048.03;5021083;28;20053;-72
2024/03/06 00:56:21;;;;;;;51.88;49.17;;;;;;;6.07;100.00;101046.22;5026322;28;20046;-72
2024/03/06 00:58:47;;;;;;;52.83;49.92;;;;;;;5.96;100.00;101047.38;5025965;28;20049;-70
2024/03/06 01:01:14;;;;;;;51.75;48.85;;;;;;;5.96;100.00;101050.00;5026619;28;20049;-71
2024/03/06 01:03:40;;;;;;;48.45;45.65;;;;;;;6.01;100.00;101052.16;5024620;28;20053;-72
2024/03/06 01:06:08;;;;;;;47.30;44.60;;;;;;;6.02;100.00;101045.91;5025566;28;20604;-70
2024/03/06 01:08:36;;;;;;;44.45;41.75;;;;;;;6.11;100.00;101055.44;5024024;28;20050;-72
2024/03/06 01:11:04;;;;;;;50.85;48.13;;;;;;;6.12;100.00;101065.00;5024905;28;20054;-72
2024/03/06 01:13:32;;;;;;;50.03;46.88;;;;;;;6.05;100.00;101056.94;5025994;28;20157;-72
2024/03/06 01:15:59;;;;;;;48.95;46.25;;;;;;;6.10;100.00;101065.16;5023913;28;20065;-72
2024/03/06 01:18:25;;;;;;;50.53;47.78;;;;;;;6.02;100.00;101056.44;5024305;28;20056;-72
2024/03/06 01:20:52;;;;;;;53.92;50.58;;;;;;;5.96;100.00;101050.88;5023062;28;20042;-72
2024/03/06 01:23:19;;;;;;;58.38;55.28;;;;;;;6.05;100.00;101059.59;5028365;28;20041;-72
2024/03/06 01:25:48;;;;;;;56.13;53.13;;;;;;;6.07;100.00;101056.78;5026736;28;20056;-72
2024/03/06 01:28:14;;;;;;;56.10;53.10;;;;;;;5.97;100.00;101057.78;5027893;28;20691;-72
2024/03/06 01:30:41;;;;;;;53.83;50.92;;;;;;;5.99;100.00;101059.41;5019239;28;20057;-72
2024/03/06 01:33:09;;;;;;;48.40;45.70;;;;;;;5.95;100.00;101065.03;5018113;28;20050;-72
2024/03/06 01:35:36;;;;;;;49.42;46.72;;;;;;;5.98;100.00;101069.13;5024369;28;20062;-72
2024/03/06 01:38:03;;;;;;;55.63;52.63;;;;;;;6.02;100.00;101075.75;5030232;28;20128;-72
2024/03/06 01:40:30;;;;;;;49.92;47.30;;;;;;;5.98;100.00;101082.31;5026930;28;20050;-72
2024/03/06 01:42:58;;;;;;;50.28;47.55;;;;;;;6.07;100.00;101085.78;5026978;28;20065;-72
2024/03/06 01:45:25;;;;;;;47.67;45.08;;;;;;;6.04;100.00;101084.28;5025124;28;20057;-72
2024/03/06 01:47:52;;;;;;;59.05;55.85;;;;;;;5.97;100.00;101084.16;5026086;28;20061;-72
2024/03/06 01:50:20;;;;;;;51.15;48.35;;;;;;;6.07;100.00;101070.78;5029925;28;20053;-72
2024/03/06 01:52:48;;;;;;;47.80;45.20;;;;;;;6.04;100.00;101084.28;5030969;28;20052;-72
2024/03/06 01:55:15;;;;;;;35.40;33.40;;;;;;;6.14;100.00;101078.84;5025698;28;20504;-72
2024/03/06 01:57:43;;;;;;;35.40;33.40;;;;;;;6.04;100.00;101079.03;5029744;28;20444;-72
2024/03/06 02:00:13;;;;;;;32.30;30.40;;;;;;;6.11;100.00;101081.81;5030597;28;20056;-72
2024/03/06 02:02:42;;;;;;;32.67;30.77;;;;;;;5.98;100.00;101079.69;5027494;28;20493;-72
2024/03/06 02:05:10;;;;;;;33.33;31.45;;;;;;;5.86;100.00;101081.00;5030002;28;20057;-72
2024/03/06 02:07:38;;;;;;;34.88;32.78;;;;;;;5.97;100.00;101091.22;5026041;28;20053;-72
2024/03/06 02:10:07;;;;;;;35.08;33.15;;;;;;;6.03;100.00;101093.19;5027764;28;20084;-71
2024/03/06 02:12:34;;;;;;;34.05;31.85;;;;;;;6.00;100.00;101088.25;5026984;28;20060;-70
2024/03/06 02:15:02;;;;;;;33.47;31.58;;;;;;;6.06;100.00;101092.88;5027965;28;20134;-71
2024/03/06 02:17:35;;;;;;;32.92;30.83;;;;;;;5.85;100.00;101085.44;5028336;28;20057;-72
2024/03/06 02:20:05;;;;;;;;;;;;;;;5.92;100.00;101091.69;5014288;28;20060;-72
2024/03/06 02:22:34;;;;;;;35.20;33.13;;;;;;;5.84;100.00;101096.13;5027300;28;19927;-72
2024/03/06 02:25:00;;;;;;;34.30;32.30;;;;;;;5.96;100.00;101098.31;5030885;28;20734;-72
2024/03/06 02:27:27;;;;;;;36.35;34.25;;;;;;;5.98;100.00;101100.78;5029934;28;20046;-70
2024/03/06 02:29:54;;;;;;;37.10;35.00;;;;;;;5.83;100.00;101097.13;5027070;28;20055;-72
2024/03/06 02:32:21;;;;;;;36.22;33.90;;;;;;;5.77;100.00;101105.69;5030375;28;20049;-72
2024/03/06 02:34:49;;;;;;;35.50;33.20;;;;;;;5.83;100.00;101105.88;5030115;28;20041;-72
2024/03/06 02:37:16;;;;;;;34.03;31.73;;;;;;;5.89;100.00;101110.47;5026217;28;20077;-72
2024/03/06 02:39:44;;;;;;;36.63;34.42;;;;;;;5.94;100.00;101105.56;5029294;28;20052;-72
2024/03/06 02:42:16;;;;;;;36.70;34.60;;;;;;;5.88;100.00;101103.56;5029640;28;20056;-72
2024/03/06 02:44:43;;;;;;;37.03;35.13;;;;;;;5.85;100.00;101100.44;5022087;28;20053;-72
2024/03/06 02:47:10;;;;;;;39.45;37.25;;;;;;;5.83;100.00;101100.59;5028660;28;20057;-72
2024/03/06 02:49:37;;;;;;;41.20;38.75;;;;;;;5.82;100.00;101100.78;5029279;28;20056;-72
2024/03/06 02:52:04;;;;;;;36.65;34.45;;;;;;;5.86;100.00;101102.06;5029180;28;20053;-72
2024/03/06 02:54:31;;;;;;;35.28;33.15;;;;;;;5.74;100.00;101098.94;5023960;28;20510;-70
2024/03/06 02:57:05;;;;;;;38.45;36.05;;;;;;;5.74;100.00;101099.75;5027981;28;20089;-70
2024/03/06 02:59:32;;;;;;;36.13;33.72;;;;;;;5.76;100.00;101101.44;5024560;28;20061;-72
2024/03/06 03:02:00;;;;;;;36.25;34.05;;;;;;;5.58;100.00;101099.78;5026172;28;20060;-72
2024/03/06 03:04:27;;;;;;;43.08;40.20;;;;;;;5.71;100.00;101105.38;5022695;28;20597;-72
2024/03/06 03:06:54;;;;;;;42.63;40.03;;;;;;;5.64;100.00;101114.94;5028000;28;20046;-72
2024/03/06 03:09:21;;;;;;;36.53;34.20;;;;;;;5.71;100.00;101109.81;5027298;28;20050;-72
2024/03/06 03:11:47;;;;;;;36.20;33.88;;;;;;;5.63;100.00;101121.19;5027570;28;20081;-70
2024/03/06 03:14:16;;;;;;;41.10;38.30;;;;;;;5.66;100.00;101120.88;5029669;28;20061;-72
2024/03/06 03:16:43;;;;;;;37.05;34.55;;;;;;;5.72;100.00;101127.31;5026084;28;20045;-72
2024/03/06 03:19:09;;;;;;;37.78;35.17;;;;;;;5.71;100.00;101130.91;5027242;28;20054;-72
2024/03/06 03:21:37;;;;;;;43.50;40.17;;;;;;;5.74;100.00;101136.66;5029441;28;20072;-70
2024/03/06 03:24:04;;;;;;;42.35;39.35;;;;;;;5.58;100.00;101133.22;5027543;28;20489;-72
2024/03/06 03:26:31;;;;;;;38.72;36.03;;;;;;;5.66;100.00;101141.13;5028879;28;20053;-72
2024/03/06 03:28:59;;;;;;;38.03;35.22;;;;;;;5.65;100.00;101136.81;5028091;28;20530;-72
2024/03/06 03:31:27;;;;;;;38.22;35.42;;;;;;;5.71;100.00;101147.53;5025229;28;20049;-72
2024/03/06 03:33:54;;;;;;;41.95;38.92;;;;;;;5.65;100.00;101139.47;5021456;28;20544;-72
2024/03/06 03:36:21;;;;;;;39.35;36.55;;;;;;;5.61;100.00;101146.88;5028082;28;20053;-70
2024/03/06 03:38:48;;;;;;;44.55;41.45;;;;;;;5.55;100.00;101147.53;5024430;28;20582;-71
2024/03/06 03:41:16;;;;;;;43.75;40.75;;;;;;;5.58;100.00;101146.38;5026072;28;20045;-71
2024/03/06 03:43:43;;;;;;;41.15;38.25;;;;;;;5.47;100.00;101144.88;5029225;28;20056;-72
2024/03/06 03:46:10;;;;;;;39.17;36.38;;;;;;;5.56;100.00;101143.06;5029417;28;20520;-72
2024/03/06 03:48:38;;;;;;;41.60;38.60;;;;;;;5.57;100.00;101153.47;5027937;28;20107;-70
2024/03/06 03:51:06;;;;;;;39.17;36.28;;;;;;;5.53;100.00;101153.94;5026427;28;20079;-71
2024/03/06 03:53:33;;;;;;;44.33;41.03;;;;;;;5.42;100.00;101161.19;5027677;28;20080;-71
2024/03/06 03:56:01;;;;;;;46.03;42.75;;;;;;;5.53;100.00;101156.56;5021294;28;20049;-70
2024/03/06 03:58:28;;;;;;;52.17;48.58;;;;;;;5.60;100.00;101155.78;5025661;28;20067;-70
2024/03/06 04:00:55;;;;;;;47.85;44.65;;;;;;;5.59;100.00;101161.19;5027243;28;20048;-72
2024/03/06 04:03:23;;;;;;;51.13;47.53;;;;;;;5.55;100.00;101158.06;5025647;28;20132;-70
2024/03/06 04:05:52;;;;;;;46.28;43.17;;;;;;;5.48;100.00;101160.53;5026286;28;20136;-71
2024/03/06 04:08:19;;;;;;;44.90;41.72;;;;;;;5.51;100.00;101168.13;5034275;28;20063;-72
2024/03/06 04:10:46;;;;;;;51.13;47.42;;;;;;;5.47;100.00;101160.69;5031365;28;20746;-72
2024/03/06 04:13:13;;;;;;;46.20;42.67;;;;;;;5.45;100.00;101163.50;5029773;28;20056;-70
2024/03/06 04:15:40;;;;;;;46.33;42.92;;;;;;;5.41;100.00;101172.69;5026367;28;20054;-70
2024/03/06 04:18:07;;;;;;;48.13;44.85;;;;;;;5.33;100.00;101166.59;5024520;28;20049;-71
2024/03/06 04:20:35;;;;;;;48.60;45.20;;;;;;;5.38;100.00;101167.72;5028261;28;20049;-72
2024/03/06 04:23:03;;;;;;;44.80;41.80;;;;;;;5.46;100.00;101167.75;5023452;28;20065;-72
2024/03/06 04:25:30;;;;;;;51.50;47.90;;;;;;;5.45;100.00;101178.47;5028475;28;20063;-71
2024/03/06 04:27:57;;;;;;;50.10;46.20;;;;;;;5.34;100.00;101176.94;5028122;28;20041;-72
2024/03/06 04:30:24;;;;;;;54.30;50.67;;;;;;;5.21;100.00;101184.50;5035312;28;20438;-72
2024/03/06 04:32:51;;;;;;;58.35;54.47;;;;;;;5.27;100.00;101174.13;5022766;28;20045;-72
2024/03/06 04:35:18;;;;;;;42.30;39.30;;;;;;;5.21;100.00;101177.41;5026240;28;20041;-71
2024/03/06 04:37:45;;;;;;;40.63;37.53;;;;;;;5.20;100.00;101182.81;5028010;28;20501;-71
2024/03/06 04:40:17;;;;;;;53.63;48.72;;;;;;;5.23;100.00;101182.50;5024127;28;20735;-72
2024/03/06 04:42:46;;;;;;;38.67;35.55;;;;;;;5.21;100.00;101187.13;5024462;28;20053;-72
2024/03/06 04:45:17;;;;;;;35.95;33.35;;;;;;;5.14;100.00;101192.19;5027780;28;20046;-72
2024/03/06 04:47:45;;;;;;;41.35;37.90;;;;;;;5.10;100.00;101193.50;5027808;28;20057;-72
2024/03/06 04:50:14;;;;;;;37.60;34.95;;;;;;;5.15;100.00;101193.84;5022333;28;20053;-72
2024/03/06 04:52:41;;;;;;;36.60;34.03;;;;;;;5.10;100.00;101205.84;5027618;28;20869;-72
2024/03/06 04:55:11;;;;;;;38.03;35.25;;;;;;;5.12;100.00;101198.63;5021664;28;20490;-72
2024/03/06 04:57:41;;;;;;;36.70;34.05;;;;;;;5.07;100.00;101199.06;5024721;28;20050;-72
2024/03/06 05:00:10;;;;;;;38.15;35.55;;;;;;;5.06;100.00;101205.34;5028692;28;20049;-72
2024/03/06 05:02:37;;;;;;;34.20;31.80;;;;;;;4.93;100.00;101213.66;5029182;28;20152;-72
2024/03/06 05:05:04;;;;;;;37.95;35.15;;;;;;;4.99;100.00;101210.41;5026118;28;20053;-71
2024/03/06 05:07:32;;;;;;;36.97;34.10;;;;;;;4.94;100.00;101215.31;5025946;28;20054;-72
2024/03/06 05:10:00;;;;;;;40.35;37.40;;;;;;;4.97;100.00;101219.44;5027150;28;20053;-72
2024/03/06 05:12:28;;;;;;;38.40;35.50;;;;;;;4.88;100.00;101228.28;5024947;28;20050;-72
2024/03/06 05:14:56;;;;;;;38.72;35.58;;;;;;;4.75;100.00;101234.78;5026704;28;20962;-71
2024/03/06 05:17:24;;;;;;;38.05;35.65;;;;;;;4.79;100.00;101230.03;5025035;28;20057;-72
2024/03/06 05:19:51;;;;;;;36.20;33.70;;;;;;;4.53;100.00;101232.66;5028377;28;20599;-72
2024/03/06 05:22:18;;;;;;;35.08;32.63;;;;;;;4.51;100.00;101232.00;5028656;28;20071;-72
2024/03/06 05:24:45;;;;;;;33.50;30.92;;;;;;;4.50;100.00;101241.66;5030628;28;20425;-72
2024/03/06 05:27:16;;;;;;;31.92;29.80;;;;;;;4.47;100.00;101243.78;5029646;28;20410;-71
2024/03/06 05:29:44;;;;;;;30.63;28.15;;;;;;;4.55;100.00;101241.22;5027401;28;20092;-72
2024/03/06 05:32:13;;;;;;;33.55;31.15;;;;;;;4.56;100.00;101241.06;5029236;28;20056;-72
2024/03/06 05:34:40;;;;;;;31.63;29.63;;;;;;;4.55;100.00;101242.03;5027509;28;20060;-72
2024/03/06 05:37:09;;;;;;;32.22;30.13;;;;;;;4.45;100.00;101243.94;5029540;28;20064;-72
2024/03/06 05:39:36;;;;;;;33.25;30.30;;;;;;;4.57;100.00;101247.16;5031944;28;20049;-72
2024/03/06 05:42:04;;;;;;;32.35;30.05;;;;;;;4.54;100.00;101258.00;5028068;28;20111;-72
2024/03/06 05:44:31;;;;;;;31.33;29.30;;;;;;;4.54;100.00;101256.19;5027821;28;20060;-72
2024/03/06 05:46:58;;;;;;;33.15;30.25;;;;;;;4.58;100.00;101254.88;5027511;28;20799;-71
2024/03/06 05:49:27;;;;;;;32.80;30.70;;;;;;;4.79;100.00;101262.44;5030359;28;20046;-72
2024/03/06 05:51:54;;;;;;;39.33;36.72;;;;;;;8.09;100.00;101266.53;5028034;28;20538;-72
2024/03/06 05:54:20;;;;;;;28.83;27.02;;;;;;;4.89;100.00;101264.97;5025360;28;20052;-72
2024/03/06 05:56:49;;;;;;;31.80;29.80;;;;;;;4.57;100.00;101266.41;5026604;28;20045;-72
2024/03/06 05:59:16;;;;;;;33.35;31.25;;;;;;;4.60;100.00;101275.81;5028555;28;20050;-72
2024/03/06 06:01:43;;;;;;;31.90;29.80;;;;;;;4.66;100.00;101283.09;5027800;28;20065;-72
2024/03/06 06:04:10;;;;;;;34.67;32.35;;;;;;;4.74;100.00;101280.50;5030895;28;20049;-72
2024/03/06 06:06:38;;;;;;;33.45;31.45;;;;;;;4.76;100.00;101278.53;5029883;28;20522;-72
2024/03/06 06:09:06;;;;;;;30.45;28.65;;;;;;;4.60;100.00;101283.69;5029230;28;20049;-72
2024/03/06 06:11:35;;;;;;;30.88;28.67;;;;;;;4.68;100.00;101280.28;5030388;28;20525;-72
2024/03/06 06:14:03;;;;;;;33.80;31.67;;;;;;;4.88;100.00;101284.38;5027948;28;20049;-72
2024/03/06 06:16:36;;;;;;;32.45;30.55;;;;;;;4.98;100.00;101285.09;5025190;28;20061;-72
2024/03/06 06:19:02;;;;;;;33.05;30.67;;;;;;;5.07;100.00;101293.88;5028304;28;20046;-72
2024/03/06 06:21:29;;;;;;;32.60;29.55;;;;;;;4.82;100.00;101280.56;5023353;28;20053;-71
2024/03/06 06:23:58;;;;;;;32.67;30.42;;;;;;;4.83;100.00;101289.28;5029563;28;20053;-72
2024/03/06 06:26:24;;;;;;;33.97;31.77;;;;;;;4.94;100.00;101296.09;5029012;28;20045;-71
2024/03/06 06:28:51;;;;;;;31.08;29.17;;;;;;;4.92;100.00;101290.97;5029757;28;20049;-72
2024/03/06 06:31:18;;;;;;;34.92;31.48;;;;;;;4.91;100.00;101289.34;5027533;28;20789;-71
2024/03/06 06:33:49;;;;;;;33.80;31.27;;;;;;;4.80;100.00;101292.22;5027351;28;20045;-71
2024/03/06 06:36:18;;;;;;;32.75;30.60;;;;;;;4.85;100.00;101294.41;5030008;28;20045;-72
2024/03/06 06:38:45;;;;;;;35.40;32.53;;;;;;;4.90;100.00;101294.75;5029023;28;20045;-71
2024/03/06 06:41:16;;;;;;;34.30;31.45;;;;;;;5.02;100.00;101294.34;5027150;28;20069;-71
2024/03/06 06:43:43;;;;;;;30.58;28.67;;;;;;;4.81;100.00;101292.06;5029048;28;20060;-71
2024/03/06 06:46:10;;;;;;;32.22;29.50;;;;;;;4.86;100.00;101296.84;5027305;28;20044;-72
2024/03/06 06:48:37;;;;;;;33.85;31.60;;;;;;;4.99;100.00;101301.69;5027713;28;20057;-71
2024/03/06 06:51:04;;;;;;;34.60;31.92;;;;;;;5.11;100.00;101299.63;5027662;28;20132;-71
2024/03/06 06:53:31;;;;;;;33.65;31.38;;;;;;;5.10;100.00;101296.19;5028690;28;20060;-71
2024/03/06 06:55:58;;;;;;;37.85;35.35;;;;;;;5.02;100.00;101302.25;5022190;28;20046;-70
2024/03/06 06:58:30;;;;;;;35.35;32.67;;;;;;;5.07;100.00;101309.66;5020977;28;20049;-71
2024/03/06 07:00:57;;;;;;;36.35;33.95;;;;;;;5.12;100.00;101303.94;5025397;28;20052;-71
2024/03/06 07:03:29;;;;;;;39.90;37.00;;;;;;;5.19;100.00;101302.31;5026635;28;20052;-70
2024/03/06 07:05:56;;;;;;;36.60;34.03;;;;;;;5.28;100.00;101302.22;5028647;28;20053;-72
2024/03/06 07:08:23;;;;;;;38.38;35.28;;;;;;;5.14;100.00;101300.16;5024259;28;20449;-71
2024/03/06 07:10:53;;;;;;;32.78;30.67;;;;;;;5.13;100.00;101303.78;5019679;28;20081;-71
2024/03/06 07:13:20;;;;;;;36.22;33.63;;;;;;;5.23;100.00;101296.59;5027302;28;20049;-71
2024/03/06 07:15:48;;;;;;;36.35;33.95;;;;;;;5.15;100.00;101304.44;5029407;28;20053;-72
2024/03/06 07:18:15;;;;;;;32.83;30.73;;;;;;;5.36;100.00;101305.88;5025223;28;20423;-71
2024/03/06 07:20:42;;;;;;;41.15;38.63;;;;;;;5.37;100.00;101315.44;5029499;28;20060;-72
2024/03/06 07:23:09;;;;;;;40.83;38.25;;;;;;;5.44;100.00;101316.44;5029287;28;20048;-71
2024/03/06 07:25:36;;;;;;;36.17;33.85;;;;;;;5.59;100.00;101314.03;5028392;28;20049;-71
2024/03/06 07:28:03;;;;;;;39.03;36.45;;;;;;;5.73;100.00;101318.72;5027059;28;20045;-72
2024/03/06 07:30:30;;;;;;;37.92;35.63;;;;;;;5.96;100.00;101318.97;5023871;28;20064;-72
2024/03/06 07:33:00;;;;;;;35.28;32.97;;;;;;;6.15;100.00;101320.50;5027542;28;20107;-72
2024/03/06 07:35:27;;;;;;;32.08;30.17;;;;;;;6.13;100.00;101318.03;5028648;28;20511;-72
2024/03/06 07:37:54;;;;;;;36.83;34.63;;;;;;;6.22;100.00;101323.31;5025088;28;20840;-71
2024/03/06 07:40:21;;;;;;;35.80;33.55;;;;;;;6.32;100.00;101324.81;5026109;28;20053;-71
2024/03/06 07:42:48;;;;;;;34.58;32.53;;;;;;;5.97;100.00;101321.47;5026374;28;20064;-69
2024/03/06 07:45:15;;;;;;;33.80;31.80;;;;;;;6.09;100.00;101321.16;5026394;28;20049;-71
2024/03/06 07:47:42;;;;;;;37.63;34.78;;;;;;;6.09;100.00;101329.91;5029207;28;20049;-72
2024/03/06 07:50:12;;;;;;;36.00;33.90;;;;;;;6.16;100.00;101336.16;5025855;28;20068;-70
2024/03/06 07:52:39;;;;;;;35.05;32.95;;;;;;;5.92;100.00;101344.81;5026781;28;20071;-70
2024/03/06 07:55:07;;;;;;;35.50;33.08;;;;;;;6.08;100.00;101338.81;5021083;28;20736;-70
2024/03/06 07:57:33;;;;;;;35.70;33.50;;;;;;;6.18;100.00;101336.00;5024326;28;20053;-71
2024/03/06 08:00:00;;;;;;;34.05;32.05;;;;;;;6.08;100.00;101341.44;5022619;28;20132;-72
2024/03/06 08:02:28;;;;;;;33.63;31.17;;;;;;;6.05;100.00;101340.91;5024877;28;20049;-71
2024/03/06 08:05:02;;;;;;;34.53;32.08;;;;;;;6.23;100.00;101346.06;5026721;28;20072;-72
2024/03/06 08:07:30;;;;;;;33.38;31.67;;;;;;;5.94;100.00;101337.59;5026045;28;20509;-72
2024/03/06 08:09:59;;;;;;;36.55;34.55;;;;;;;5.87;100.00;101354.16;5026843;28;20053;-71
2024/03/06 08:12:25;;;;;;;32.35;30.33;;;;;;;6.03;100.00;101351.63;5027263;28;20069;-71
2024/03/06 08:14:55;;;;;;;29.25;27.50;;;;;;;6.21;100.00;101353.34;5026192;28;20046;-72
2024/03/06 08:17:22;;;;;;;33.08;31.20;;;;;;;6.13;100.00;101354.13;5025811;28;20132;-71
2024/03/06 08:19:48;;;;;;;32.55;30.70;;;;;;;6.32;100.00;101353.00;5026920;28;20525;-72
2024/03/06 08:22:16;;;;;;;29.73;27.92;;;;;;;6.19;100.00;101354.31;5024077;28;20053;-71
2024/03/06 08:24:44;;;;;;;33.25;31.35;;;;;;;6.45;100.00;101366.56;5028164;28;20573;-70
2024/03/06 08:27:11;;;;;;;33.83;31.73;;;;;;;6.23;100.00;101359.25;5024134;28;20556;-72
2024/03/06 08:29:38;;;;;;;27.60;26.10;;;;;;;6.32;100.00;101355.66;5026284;28;20057;-71
2024/03/06 08:32:05;;;;;;;28.40;26.90;;;;;;;6.16;100.00;101357.25;5022484;28;20417;-72
2024/03/06 08:34:33;;;;;;;32.00;29.88;;;;;;;6.12;100.00;101352.50;5026197;28;20057;-71
2024/03/06 08:37:00;;;;;;;30.92;29.05;;;;;;;6.22;100.00;101362.91;5026896;28;20041;-71
2024/03/06 08:39:27;;;;;;;29.30;27.50;;;;;;;6.38;100.00;101357.63;5025268;28;20056;-71
2024/03/06 08:41:57;;;;;;;30.02;28.02;;;;;;;6.40;100.00;101358.31;5019147;28;20445;-71
2024/03/06 08:44:27;;;;;;;32.03;30.13;;;;;;;6.55;100.00;101366.41;5027747;28;20049;-71
2024/03/06 08:46:54;;;;;;;30.17;28.33;;;;;;;6.60;100.00;101366.75;5027204;28;20090;-72
2024/03/06 08:49:21;;;;;;;31.33;29.42;;;;;;;6.61;100.00;101360.47;5027000;28;20501;-71
2024/03/06 08:51:48;;;;;;;29.58;27.73;;;;;;;6.75;100.00;101364.28;5027437;28;20053;-72
2024/03/06 08:54:21;;;;;;;28.95;27.35;;;;;;;6.81;100.00;101353.06;5024132;28;20057;-71
2024/03/06 08:56:48;;;;;;;30.48;28.52;;;;;;;6.80;100.00;101349.56;5025915;28;20117;-71
2024/03/06 08:59:16;;;;;;;28.63;26.83;;;;;;;7.04;100.00;101356.66;5031377;28;20056;-72
2024/03/06 09:01:43;;;;;;;29.15;26.92;;;;;;;6.97;100.00;101357.50;5028520;28;20065;-72
2024/03/06 09:04:10;;;;;;;25.90;24.30;;;;;;;7.21;100.00;101352.19;5032214;28;20128;-72
2024/03/06 09:06:37;;;;;;;28.48;26.75;;;;;;;7.38;100.00;101350.31;5035031;28;20060;-72
2024/03/06 09:09:05;;;;;;;29.52;27.83;;;;;;;7.17;100.00;101350.03;5029949;28;20105;-72
2024/03/06 09:11:32;;;;;;;28.02;26.33;;;;;;;7.03;100.00;101354.19;5034143;28;20049;-71
2024/03/06 09:14:00;;;;;;;29.45;27.75;;;;;;;7.03;100.00;101349.75;5033240;28;20042;-71
2024/03/06 09:16:28;;;;;;;31.83;29.98;;;;;;;7.16;100.00;101340.47;5033553;28;20433;-72
2024/03/06 09:18:55;;;;;;;29.35;27.65;;;;;;;7.03;100.00;101341.00;5033158;28;20460;-70
2024/03/06 09:21:22;;;;;;;33.63;31.73;;;;;;;7.11;100.00;101343.63;5032501;28;20513;-72
2024/03/06 09:23:51;;;;;;;31.45;29.85;;;;;;;7.21;100.00;101346.09;5030959;28;20476;-71
2024/03/06 09:26:18;;;;;;;28.77;27.27;;;;;;;7.28;100.00;101344.41;5035635;28;20092;-72
2024/03/06 09:28:45;;;;;;;29.75;28.00;;;;;;;7.30;100.00;101337.97;5034645;28;20062;-72
2024/03/06 09:31:13;;;;;;;31.30;29.60;;;;;;;7.39;100.00;101330.84;5029367;28;20061;-71
2024/03/06 09:33:42;;;;;;;31.13;29.33;;;;;;;7.80;100.00;101335.97;5035172;28;20053;-71
2024/03/06 09:36:13;;;;;;;27.48;25.92;;;;;;;7.86;100.00;101331.81;5032490;28;20053;-71
2024/03/06 09:38:40;;;;;;;27.90;26.30;;;;;;;8.22;100.00;101327.63;5027613;28;20095;-72
2024/03/06 09:41:08;;;;;;;31.38;29.48;;;;;;;8.17;100.00;101329.13;5031165;28;20041;-71
2024/03/06 09:43:35;;;;;;;29.75;28.17;;;;;;;8.14;100.00;101322.41;5033485;28;20131;-71
2024/03/06 09:46:02;;;;;;;32.80;30.60;;;;;;;8.49;100.00;101328.94;5034282;28;20099;-72
2024/03/06 09:48:30;;;;;;;37.80;33.67;;;;;;;9.10;100.00;101333.38;5031650;28;20053;-73
2024/03/06 09:51:02;;;;;;;35.05;32.85;;;;;;;9.15;100.00;101318.59;5032328;28;20060;-72
2024/03/06 09:53:29;;;;;;;34.50;32.50;;;;;;;9.35;100.00;101323.38;5032222;28;20143;-72
2024/03/06 09:55:57;;;;;;;35.90;33.70;;;;;;;9.54;100.00;101316.69;5026701;28;20128;-70
2024/03/06 09:58:24;;;;;;;39.10;36.78;;;;;;;9.61;100.00;101320.25;5031848;28;20142;-71
2024/03/06 10:00:54;;;;;;;36.20;34.03;;;;;;;9.22;100.00;101318.69;5034083;28;20812;-72
2024/03/06 10:03:21;;;;;;;36.17;34.08;;;;;;;8.79;100.00;101320.28;5033397;28;20049;-71
2024/03/06 10:05:48;;;;;;;31.80;30.00;;;;;;;8.77;100.00;101320.44;5028799;28;20053;-72
2024/03/06 10:08:17;;;;;;;33.90;31.85;;;;;;;8.57;100.00;101320.13;5028976;28;20056;-71
2024/03/06 10:10:45;;;;;;;37.00;34.72;;;;;;;8.46;100.00;101320.53;5029344;28;20107;-72
2024/03/06 10:13:12;;;;;;;38.30;35.70;;;;;;;8.84;100.00;101318.75;5027111;28;20493;-72
2024/03/06 10:15:39;;;;;;;33.90;32.00;;;;;;;8.77;100.00;101322.28;5025537;28;20041;-72
2024/03/06 10:18:13;;;;;;;32.35;30.38;;;;;;;8.87;100.00;101312.28;5025385;28;20056;-72
2024/03/06 10:20:41;;;;;;;33.80;31.80;;;;;;;8.64;100.00;101317.59;5029664;28;20573;-72
2024/03/06 10:23:11;;;;;;;33.22;31.23;;;;;;;8.84;100.00;101307.34;5030781;28;20839;-72
2024/03/06 10:25:39;;;;;;;29.35;27.50;;;;;;;9.23;100.00;101309.75;5031721;28;20056;-72
2024/03/06 10:28:07;;;;;;;33.40;31.40;;;;;;;8.87;100.00;101307.78;5029865;28;20042;-72
2024/03/06 10:30:35;;;;;;;33.45;31.45;;;;;;;8.94;100.00;101311.34;5028080;28;20107;-72
2024/03/06 10:33:03;;;;;;;34.15;32.30;;;;;;;9.15;100.00;101315.13;5022596;28;20111;-72
2024/03/06 10:35:30;;;;;;;39.50;37.40;;;;;;;9.32;100.00;101305.16;5027769;28;20052;-72
2024/03/06 10:38:00;;;;;;;43.20;40.65;;;;;;;9.49;100.00;101305.81;5028247;28;20045;-72
2024/03/06 10:40:29;;;;;;;44.10;41.70;;;;;;;9.64;100.00;101298.66;5022759;28;20049;-72
2024/03/06 10:42:57;;;;;;;41.60;39.30;;;;;;;9.94;100.00;101296.75;5029111;28;20045;-72
2024/03/06 10:45:33;;;;;;;42.38;39.97;;;;;;;10.08;100.00;101297.72;5029967;28;20052;-72
2024/03/06 10:48:01;;;;;;;40.03;37.72;;;;;;;10.13;100.00;101291.84;5029415;28;20053;-72
2024/03/06 10:50:28;;;;;;;44.22;41.92;;;;;;;10.81;100.00;101292.28;5027666;28;20068;-72
2024/03/06 10:52:59;;;;;;;36.47;34.28;;;;;;;10.20;100.00;101287.44;5029170;28;20444;-70
2024/03/06 10:55:28;;;;;;;33.92;32.00;;;;;;;9.98;100.00;101281.28;5028990;28;20050;-72
2024/03/06 10:57:58;;;;;;;31.73;29.95;;;;;;;10.10;100.00;101285.06;5021825;28;20049;-72
2024/03/06 11:00:28;;;;;;;30.60;28.90;;;;;;;9.98;100.00;101282.09;5024796;28;20441;-72
2024/03/06 11:02:56;;;;;;;32.55;30.65;;;;;;;9.73;100.00;101281.63;5028975;28;20049;-72
2024/03/06 11:05:24;;;;;;;38.63;36.63;;;;;;;9.46;100.00;101272.50;5026391;28;20128;-71
2024/03/06 11:07:52;;;;;;;35.00;33.10;;;;;;;10.11;100.00;101267.34;5026601;28;20136;-70
2024/03/06 11:10:31;;;;;;;46.53;43.58;;;;;;;9.91;100.00;101275.09;5026110;28;20490;-72
2024/03/06 11:13:00;;;;;;;43.15;40.47;;;;;;;10.32;100.00;101278.00;5029606;28;20049;-70